Overview Statistics Trail Chart Weather Telemetry Raw packets
 

This is the latest recevied weather packets stored in our database for station/object N7BTW-13. If no packets are shown the sender has not sent any weather packets the latest 10 day(s).

<< 32 33 34 35 36 37 38 >>
Time Temp. Humidity Pressure Rain* Wind** Luminosity Snow
1788146106 18.89° C 65% - 0 mm - - -
1788145507 20° C 62% - 0 mm - - -
1788144907 21.11° C 58% - 0 mm - - -
1788144307 21.67° C 56% - 0 mm - - -
1788143707 21.67° C 56% - 0 mm - - -
1788143106 21.67° C 56% - 0 mm - - -
1788142507 22.22° C 54% - 0 mm - - -
1788141908 22.78° C 53% - 0 mm - - -
1788141306 22.78° C 51% - 0 mm - - -
1788140706 23.33° C 50% - 0 mm - - -
1788140107 24.44° C 49% - 0 mm - - -
1788139505 25° C 48% - 0 mm - - -
1788138909 25° C 47% - 0 mm - - -
1788138307 26.11° C 47% - 0 mm - - -
1788137707 26.11° C 46% - 0 mm - - -
1788137105 26.11° C 45% - 0 mm - - -
1788136507 26.67° C 45% - 0 mm - - -
1788135906 27.22° C 44% - 0 mm - - -
1788135321 26.67° C 45% - 0 mm - - -
1788134707 27.22° C 44% - 0 mm - - -
1788134106 27.22° C 43% - 0 mm - - -
1788133506 26.67° C 45% - 0 mm - - -
1788132907 27.78° C 44% - 0 mm - - -
1788132307 27.22° C 44% - 0 mm - - -
1788131707 27.22° C 44% - 0 mm - - -

* Rain latest hour (hover to see other rain measurements)
** Current wind speed in m/s (hover to see current wind gust speed)